<?xml version="1.0" encoding="UTF-8" standalone="no" ?>
<gpx xmlns="http://www.topografix.com/GPX/1/1" xmlns:xsi="http://www.w3.org/2001/XMLSchema-instance" xsi:schemaLocation="http://www.topografix.com/GPX/1/1 http://www.topografix.com/GPX/1/1/gpx.xsd" version="1.1" creator="VisuGPX - https://www.visugpx.com">
  <metadata>
    <name>Les Hauts de Bazenville</name>
  </metadata>
  <wpt lat="49.29208" lon="-0.56542">
    <ele>47</ele>
    <name><![CDATA[Parking du four à pain]]></name>
  </wpt>
  <wpt lat="49.29104" lon="-0.57022">
    <ele>52</ele>
    <name><![CDATA[Château d'eau]]></name>
  </wpt>
  <wpt lat="49.30645" lon="-0.5775">
    <ele>63</ele>
    <name><![CDATA[À gauche, Rue des Alliés]]></name>
  </wpt>
  <wpt lat="49.30446" lon="-0.5869">
    <ele>64</ele>
    <name><![CDATA[Chemin dit de la 69ème Brigade à droite]]></name>
  </wpt>
  <wpt lat="49.30423" lon="-0.58894">
    <ele>64</ele>
    <name><![CDATA[69éme Brigade Britanique]]></name>
  </wpt>
  <wpt lat="49.29987" lon="-0.6017">
    <ele>63</ele>
    <name><![CDATA[Cimetière Britannique - D87]]></name>
  </wpt>
  <wpt lat="49.28672" lon="-0.60672">
    <ele>29</ele>
    <name><![CDATA[Traversée de la D12]]></name>
  </wpt>
  <wpt lat="49.27889" lon="-0.60783">
    <ele>28</ele>
    <name><![CDATA[A gauche, Rue du Vieux Château]]></name>
  </wpt>
  <wpt lat="49.27854" lon="-0.60769">
    <ele>26</ele>
    <name><![CDATA[Église de Vienne-en-Bessin]]></name>
  </wpt>
  <wpt lat="49.28329" lon="-0.59568">
    <ele>22</ele>
    <name><![CDATA[Le Manoir]]></name>
  </wpt>
  <wpt lat="49.2834" lon="-0.58839">
    <ele>20</ele>
    <name><![CDATA[Chemin de Saint-Gabriel]]></name>
  </wpt>
  <wpt lat="49.28333" lon="-0.56823">
    <ele>39</ele>
    <name><![CDATA[GR223 à gauche]]></name>
  </wpt>
  <wpt lat="49.29208" lon="-0.56542">
    <ele>47</ele>
    <name><![CDATA[Parking du four à pain]]></name>
  </wpt>
  <trk>
    <name><![CDATA[Les Hauts de Bazenville]]></name>
    <trkseg>
      <trkpt lat="49.29208" lon="-0.56542">
        <ele>47</ele>
        <time>2020-10-01T11:33:52+02:00</time>
      </trkpt>
      <trkpt lat="49.29198" lon="-0.56587">
        <ele>46</ele>
        <time>2020-10-01T11:33:57+02:00</time>
      </trkpt>
      <trkpt lat="49.29191" lon="-0.56658">
        <ele>45</ele>
        <time>2020-10-01T11:34:02+02:00</time>
      </trkpt>
      <trkpt lat="49.2917" lon="-0.56747">
        <ele>46</ele>
        <time>2020-10-01T11:34:07+02:00</time>
      </trkpt>
      <trkpt lat="49.29147" lon="-0.56744">
        <ele>46</ele>
        <time>2020-10-01T11:34:12+02:00</time>
      </trkpt>
      <trkpt lat="49.29124" lon="-0.56853">
        <ele>48</ele>
        <time>2020-10-01T11:34:17+02:00</time>
      </trkpt>
      <trkpt lat="49.29116" lon="-0.56908">
        <ele>49</ele>
        <time>2020-10-01T11:34:22+02:00</time>
      </trkpt>
      <trkpt lat="49.29118" lon="-0.56958">
        <ele>50</ele>
        <time>2020-10-01T11:34:27+02:00</time>
      </trkpt>
      <trkpt lat="49.29104" lon="-0.57022">
        <ele>52</ele>
        <time>2020-10-01T11:34:32+02:00</time>
      </trkpt>
      <trkpt lat="49.29259" lon="-0.56999">
        <ele>52</ele>
        <time>2020-10-01T11:34:37+02:00</time>
      </trkpt>
      <trkpt lat="49.29347" lon="-0.56983">
        <ele>54</ele>
        <time>2020-10-01T11:34:42+02:00</time>
      </trkpt>
      <trkpt lat="49.29514" lon="-0.5696">
        <ele>57</ele>
        <time>2020-10-01T11:34:47+02:00</time>
      </trkpt>
      <trkpt lat="49.29702" lon="-0.56986">
        <ele>60</ele>
        <time>2020-10-01T11:34:52+02:00</time>
      </trkpt>
      <trkpt lat="49.29881" lon="-0.57012">
        <ele>61</ele>
        <time>2020-10-01T11:34:57+02:00</time>
      </trkpt>
      <trkpt lat="49.30018" lon="-0.57029">
        <ele>62</ele>
        <time>2020-10-01T11:35:02+02:00</time>
      </trkpt>
      <trkpt lat="49.30124" lon="-0.57128">
        <ele>61</ele>
        <time>2020-10-01T11:35:07+02:00</time>
      </trkpt>
      <trkpt lat="49.30331" lon="-0.57269">
        <ele>60</ele>
        <time>2020-10-01T11:35:12+02:00</time>
      </trkpt>
      <trkpt lat="49.30536" lon="-0.57527">
        <ele>60</ele>
        <time>2020-10-01T11:35:17+02:00</time>
      </trkpt>
      <trkpt lat="49.30519" lon="-0.5757">
        <ele>60</ele>
        <time>2020-10-01T11:35:22+02:00</time>
      </trkpt>
      <trkpt lat="49.30645" lon="-0.5775">
        <ele>63</ele>
        <time>2020-10-01T11:35:27+02:00</time>
      </trkpt>
      <trkpt lat="49.30656" lon="-0.57917">
        <ele>63</ele>
        <time>2020-10-01T11:35:32+02:00</time>
      </trkpt>
      <trkpt lat="49.30642" lon="-0.58179">
        <ele>64</ele>
        <time>2020-10-01T11:35:37+02:00</time>
      </trkpt>
      <trkpt lat="49.30533" lon="-0.58376">
        <ele>64</ele>
        <time>2020-10-01T11:35:42+02:00</time>
      </trkpt>
      <trkpt lat="49.30446" lon="-0.5869">
        <ele>64</ele>
        <time>2020-10-01T11:35:47+02:00</time>
      </trkpt>
      <trkpt lat="49.30423" lon="-0.58894">
        <ele>64</ele>
        <time>2020-10-01T11:35:52+02:00</time>
      </trkpt>
      <trkpt lat="49.30382" lon="-0.59012">
        <ele>65</ele>
        <time>2020-10-01T11:35:57+02:00</time>
      </trkpt>
      <trkpt lat="49.30362" lon="-0.59136">
        <ele>65</ele>
        <time>2020-10-01T11:36:02+02:00</time>
      </trkpt>
      <trkpt lat="49.30284" lon="-0.59346">
        <ele>66</ele>
        <time>2020-10-01T11:36:07+02:00</time>
      </trkpt>
      <trkpt lat="49.3025" lon="-0.59509">
        <ele>64</ele>
        <time>2020-10-01T11:36:12+02:00</time>
      </trkpt>
      <trkpt lat="49.30233" lon="-0.59647">
        <ele>64</ele>
        <time>2020-10-01T11:36:17+02:00</time>
      </trkpt>
      <trkpt lat="49.30289" lon="-0.59874">
        <ele>62</ele>
        <time>2020-10-01T11:36:22+02:00</time>
      </trkpt>
      <trkpt lat="49.30343" lon="-0.60041">
        <ele>57</ele>
        <time>2020-10-01T11:36:27+02:00</time>
      </trkpt>
      <trkpt lat="49.30284" lon="-0.60136">
        <ele>57</ele>
        <time>2020-10-01T11:36:32+02:00</time>
      </trkpt>
      <trkpt lat="49.29987" lon="-0.6017">
        <ele>63</ele>
        <time>2020-10-01T11:36:37+02:00</time>
      </trkpt>
      <trkpt lat="49.29716" lon="-0.60187">
        <ele>61</ele>
        <time>2020-10-01T11:36:42+02:00</time>
      </trkpt>
      <trkpt lat="49.29721" lon="-0.60252">
        <ele>59</ele>
        <time>2020-10-01T11:36:47+02:00</time>
      </trkpt>
      <trkpt lat="49.29478" lon="-0.60333">
        <ele>56</ele>
        <time>2020-10-01T11:36:52+02:00</time>
      </trkpt>
      <trkpt lat="49.29254" lon="-0.60548">
        <ele>45</ele>
        <time>2020-10-01T11:36:57+02:00</time>
      </trkpt>
      <trkpt lat="49.29144" lon="-0.60607">
        <ele>41</ele>
        <time>2020-10-01T11:37:02+02:00</time>
      </trkpt>
      <trkpt lat="49.29072" lon="-0.60664">
        <ele>39</ele>
        <time>2020-10-01T11:37:07+02:00</time>
      </trkpt>
      <trkpt lat="49.2898" lon="-0.60741">
        <ele>33</ele>
        <time>2020-10-01T11:37:12+02:00</time>
      </trkpt>
      <trkpt lat="49.28767" lon="-0.60797">
        <ele>29</ele>
        <time>2020-10-01T11:37:17+02:00</time>
      </trkpt>
      <trkpt lat="49.28672" lon="-0.60672">
        <ele>29</ele>
        <time>2020-10-01T11:37:22+02:00</time>
      </trkpt>
      <trkpt lat="49.2866" lon="-0.60741">
        <ele>28</ele>
        <time>2020-10-01T11:37:27+02:00</time>
      </trkpt>
      <trkpt lat="49.28364" lon="-0.6075">
        <ele>27</ele>
        <time>2020-10-01T11:37:32+02:00</time>
      </trkpt>
      <trkpt lat="49.28173" lon="-0.6078">
        <ele>29</ele>
        <time>2020-10-01T11:37:37+02:00</time>
      </trkpt>
      <trkpt lat="49.28176" lon="-0.60823">
        <ele>30</ele>
        <time>2020-10-01T11:37:42+02:00</time>
      </trkpt>
      <trkpt lat="49.28031" lon="-0.60865">
        <ele>29</ele>
        <time>2020-10-01T11:37:47+02:00</time>
      </trkpt>
      <trkpt lat="49.28025" lon="-0.60805">
        <ele>29</ele>
        <time>2020-10-01T11:37:52+02:00</time>
      </trkpt>
      <trkpt lat="49.27941" lon="-0.60818">
        <ele>29</ele>
        <time>2020-10-01T11:37:57+02:00</time>
      </trkpt>
      <trkpt lat="49.27932" lon="-0.60783">
        <ele>29</ele>
        <time>2020-10-01T11:38:02+02:00</time>
      </trkpt>
      <trkpt lat="49.27889" lon="-0.60783">
        <ele>28</ele>
        <time>2020-10-01T11:38:07+02:00</time>
      </trkpt>
      <trkpt lat="49.27854" lon="-0.60769">
        <ele>26</ele>
        <time>2020-10-01T11:38:12+02:00</time>
      </trkpt>
      <trkpt lat="49.27843" lon="-0.60739">
        <ele>25</ele>
        <time>2020-10-01T11:38:17+02:00</time>
      </trkpt>
      <trkpt lat="49.27848" lon="-0.60697">
        <ele>24</ele>
        <time>2020-10-01T11:38:22+02:00</time>
      </trkpt>
      <trkpt lat="49.27893" lon="-0.60531">
        <ele>23</ele>
        <time>2020-10-01T11:38:27+02:00</time>
      </trkpt>
      <trkpt lat="49.27986" lon="-0.60299">
        <ele>22</ele>
        <time>2020-10-01T11:38:32+02:00</time>
      </trkpt>
      <trkpt lat="49.28021" lon="-0.60175">
        <ele>21</ele>
        <time>2020-10-01T11:38:37+02:00</time>
      </trkpt>
      <trkpt lat="49.28066" lon="-0.60055">
        <ele>20</ele>
        <time>2020-10-01T11:38:42+02:00</time>
      </trkpt>
      <trkpt lat="49.2821" lon="-0.59782">
        <ele>20</ele>
        <time>2020-10-01T11:38:47+02:00</time>
      </trkpt>
      <trkpt lat="49.28233" lon="-0.59708">
        <ele>20</ele>
        <time>2020-10-01T11:38:52+02:00</time>
      </trkpt>
      <trkpt lat="49.28257" lon="-0.59668">
        <ele>20</ele>
        <time>2020-10-01T11:38:57+02:00</time>
      </trkpt>
      <trkpt lat="49.28329" lon="-0.59568">
        <ele>22</ele>
        <time>2020-10-01T11:39:02+02:00</time>
      </trkpt>
      <trkpt lat="49.28341" lon="-0.59498">
        <ele>22</ele>
        <time>2020-10-01T11:39:07+02:00</time>
      </trkpt>
      <trkpt lat="49.28333" lon="-0.59431">
        <ele>21</ele>
        <time>2020-10-01T11:39:12+02:00</time>
      </trkpt>
      <trkpt lat="49.28347" lon="-0.59346">
        <ele>20</ele>
        <time>2020-10-01T11:39:17+02:00</time>
      </trkpt>
      <trkpt lat="49.28364" lon="-0.59254">
        <ele>21</ele>
        <time>2020-10-01T11:39:22+02:00</time>
      </trkpt>
      <trkpt lat="49.28354" lon="-0.59182">
        <ele>21</ele>
        <time>2020-10-01T11:39:27+02:00</time>
      </trkpt>
      <trkpt lat="49.28347" lon="-0.59133">
        <ele>20</ele>
        <time>2020-10-01T11:39:32+02:00</time>
      </trkpt>
      <trkpt lat="49.2835" lon="-0.59056">
        <ele>20</ele>
        <time>2020-10-01T11:39:37+02:00</time>
      </trkpt>
      <trkpt lat="49.28352" lon="-0.58955">
        <ele>20</ele>
        <time>2020-10-01T11:39:42+02:00</time>
      </trkpt>
      <trkpt lat="49.2834" lon="-0.58839">
        <ele>20</ele>
        <time>2020-10-01T11:39:47+02:00</time>
      </trkpt>
      <trkpt lat="49.28312" lon="-0.58705">
        <ele>21</ele>
        <time>2020-10-01T11:39:52+02:00</time>
      </trkpt>
      <trkpt lat="49.28287" lon="-0.58596">
        <ele>26</ele>
        <time>2020-10-01T11:39:57+02:00</time>
      </trkpt>
      <trkpt lat="49.28271" lon="-0.58507">
        <ele>31</ele>
        <time>2020-10-01T11:40:02+02:00</time>
      </trkpt>
      <trkpt lat="49.28271" lon="-0.58398">
        <ele>34</ele>
        <time>2020-10-01T11:40:07+02:00</time>
      </trkpt>
      <trkpt lat="49.28278" lon="-0.58294">
        <ele>35</ele>
        <time>2020-10-01T11:40:12+02:00</time>
      </trkpt>
      <trkpt lat="49.28311" lon="-0.58132">
        <ele>39</ele>
        <time>2020-10-01T11:40:17+02:00</time>
      </trkpt>
      <trkpt lat="49.28319" lon="-0.58067">
        <ele>39</ele>
        <time>2020-10-01T11:40:22+02:00</time>
      </trkpt>
      <trkpt lat="49.28311" lon="-0.57691">
        <ele>39</ele>
        <time>2020-10-01T11:40:27+02:00</time>
      </trkpt>
      <trkpt lat="49.2826" lon="-0.57354">
        <ele>41</ele>
        <time>2020-10-01T11:40:32+02:00</time>
      </trkpt>
      <trkpt lat="49.28283" lon="-0.57055">
        <ele>39</ele>
        <time>2020-10-01T11:40:37+02:00</time>
      </trkpt>
      <trkpt lat="49.28333" lon="-0.56823">
        <ele>39</ele>
        <time>2020-10-01T11:40:42+02:00</time>
      </trkpt>
      <trkpt lat="49.2838" lon="-0.56848">
        <ele>42</ele>
        <time>2020-10-01T11:40:47+02:00</time>
      </trkpt>
      <trkpt lat="49.28515" lon="-0.56904">
        <ele>47</ele>
        <time>2020-10-01T11:40:52+02:00</time>
      </trkpt>
      <trkpt lat="49.28619" lon="-0.56958">
        <ele>49</ele>
        <time>2020-10-01T11:40:57+02:00</time>
      </trkpt>
      <trkpt lat="49.28764" lon="-0.57004">
        <ele>49</ele>
        <time>2020-10-01T11:41:02+02:00</time>
      </trkpt>
      <trkpt lat="49.28887" lon="-0.57041">
        <ele>50</ele>
        <time>2020-10-01T11:41:07+02:00</time>
      </trkpt>
      <trkpt lat="49.29021" lon="-0.57061">
        <ele>50</ele>
        <time>2020-10-01T11:41:12+02:00</time>
      </trkpt>
      <trkpt lat="49.2903" lon="-0.57027">
        <ele>50</ele>
        <time>2020-10-01T11:41:17+02:00</time>
      </trkpt>
      <trkpt lat="49.29104" lon="-0.57022">
        <ele>52</ele>
        <time>2020-10-01T11:41:22+02:00</time>
      </trkpt>
      <trkpt lat="49.29118" lon="-0.56959">
        <ele>51</ele>
        <time>2020-10-01T11:41:27+02:00</time>
      </trkpt>
      <trkpt lat="49.29116" lon="-0.56908">
        <ele>49</ele>
        <time>2020-10-01T11:41:32+02:00</time>
      </trkpt>
      <trkpt lat="49.29124" lon="-0.56854">
        <ele>48</ele>
        <time>2020-10-01T11:41:37+02:00</time>
      </trkpt>
      <trkpt lat="49.2914" lon="-0.56781">
        <ele>46</ele>
        <time>2020-10-01T11:41:42+02:00</time>
      </trkpt>
      <trkpt lat="49.29148" lon="-0.56744">
        <ele>46</ele>
        <time>2020-10-01T11:41:47+02:00</time>
      </trkpt>
      <trkpt lat="49.2917" lon="-0.56747">
        <ele>46</ele>
        <time>2020-10-01T11:41:52+02:00</time>
      </trkpt>
      <trkpt lat="49.29191" lon="-0.56658">
        <ele>45</ele>
        <time>2020-10-01T11:41:57+02:00</time>
      </trkpt>
      <trkpt lat="49.29199" lon="-0.56587">
        <ele>46</ele>
        <time>2020-10-01T11:42:02+02:00</time>
      </trkpt>
      <trkpt lat="49.29205" lon="-0.56562">
        <ele>47</ele>
        <time>2020-10-01T11:42:07+02:00</time>
      </trkpt>
      <trkpt lat="49.29208" lon="-0.56542">
        <ele>47</ele>
        <time>2020-10-01T11:42:12+02:00</time>
      </trkpt>
    </trkseg>
  </trk>
</gpx>